createdAt,value
2023-05-06T00:00:12.914Z,96394.53
2023-05-06T00:02:39.355Z,96382.88
2023-05-06T00:05:05.859Z,96384.19
2023-05-06T00:07:32.266Z,96381.81
2023-05-06T00:09:58.649Z,96382.38
2023-05-06T00:12:25.002Z,96383.03
2023-05-06T00:14:51.340Z,96384.09
2023-05-06T00:17:17.697Z,96384.09
2023-05-06T00:19:44.032Z,96393.09
2023-05-06T00:22:10.370Z,96389.88
2023-05-06T00:24:36.754Z,96406.84
2023-05-06T00:27:03.095Z,96406.88
2023-05-06T00:29:29.437Z,96400.00
2023-05-06T00:31:55.846Z,96390.47
2023-05-06T00:34:22.317Z,96384.13
2023-05-06T00:36:48.661Z,96377.34
2023-05-06T00:39:15.124Z,96392.78
2023-05-06T00:41:41.500Z,96395.97
2023-05-06T00:44:07.853Z,96383.81
2023-05-06T00:46:34.242Z,96397.00
2023-05-06T00:49:00.641Z,96398.16
2023-05-06T00:51:26.999Z,96398.16
2023-05-06T00:53:53.353Z,96393.94
2023-05-06T00:56:20.854Z,96393.19
2023-05-06T00:58:47.297Z,96404.06
2023-05-06T01:01:13.710Z,96395.63
2023-05-06T01:03:40.257Z,96390.09
2023-05-06T01:06:06.679Z,96383.97
2023-05-06T01:08:33.053Z,96381.59
2023-05-06T01:10:59.447Z,96372.28
2023-05-06T01:13:25.845Z,96376.50
2023-05-06T01:15:52.235Z,96376.78
2023-05-06T01:18:18.641Z,96387.56
2023-05-06T01:20:44.989Z,96386.53
2023-05-06T01:23:11.365Z,96383.91
2023-05-06T01:25:37.768Z,96380.72
2023-05-06T01:28:04.163Z,96380.19
2023-05-06T01:30:30.523Z,96373.31
2023-05-06T01:32:56.902Z,96378.66
2023-05-06T01:35:23.297Z,96369.16
2023-05-06T01:37:49.882Z,96373.41
2023-05-06T01:40:16.271Z,96369.69
2023-05-06T01:42:42.661Z,96369.94
2023-05-06T01:45:09.146Z,96371.56
2023-05-06T01:47:35.681Z,96376.94
2023-05-06T01:50:02.097Z,96381.41
2023-05-06T01:52:28.437Z,96385.63
2023-05-06T01:54:54.837Z,96386.69
2023-05-06T01:57:21.187Z,96379.28
2023-05-06T01:59:47.536Z,96376.91
2023-05-06T02:02:13.876Z,96377.69
2023-05-06T02:04:40.256Z,96381.41
2023-05-06T02:07:07.767Z,96387.75
2023-05-06T02:09:34.111Z,96402.03
2023-05-06T02:12:00.492Z,96402.03
2023-05-06T02:14:26.881Z,96399.41
2023-05-06T02:16:53.270Z,96401.53
2023-05-06T02:19:19.652Z,96410.50
2023-05-06T02:21:45.999Z,96408.41
2023-05-06T02:24:12.391Z,96398.88
2023-05-06T02:26:38.743Z,96395.19
2023-05-06T02:29:05.126Z,96395.19
2023-05-06T02:31:31.561Z,96389.91
2023-05-06T02:33:57.965Z,96395.19
2023-05-06T02:36:24.315Z,96403.38
2023-05-06T02:38:50.684Z,96393.34
2023-05-06T02:41:17.024Z,96386.69
2023-05-06T02:43:43.418Z,96379.28
2023-05-06T02:46:09.893Z,96377.72
2023-05-06T02:48:36.290Z,96380.94
2023-05-06T02:51:02.708Z,96375.63
2023-05-06T02:53:29.097Z,96377.22
2023-05-06T02:55:55.449Z,96381.44
2023-05-06T02:58:21.842Z,96383.50
2023-05-06T03:00:48.310Z,96371.88
2023-05-06T03:03:14.667Z,96374.00
2023-05-06T03:05:41.041Z,96371.91
2023-05-06T03:08:07.436Z,96380.09
2023-05-06T03:10:33.904Z,96371.34
2023-05-06T03:13:00.295Z,96371.09
2023-05-06T03:15:26.722Z,96362.66
2023-05-06T03:17:53.185Z,96366.06
2023-05-06T03:20:19.672Z,96355.50
2023-05-06T03:22:46.063Z,96361.84
2023-05-06T03:25:12.621Z,96360.53
2023-05-06T03:27:39.075Z,96359.72
2023-05-06T03:30:05.453Z,96363.41
2023-05-06T03:32:31.844Z,96354.41
2023-05-06T03:34:58.256Z,96359.16
2023-05-06T03:37:24.636Z,96363.41
2023-05-06T03:39:51.008Z,96361.28
2023-05-06T03:42:17.454Z,96367.63
2023-05-06T03:44:43.845Z,96361.78
2023-05-06T03:47:10.213Z,96362.81
2023-05-06T03:49:36.606Z,96361.22
2023-05-06T03:52:02.946Z,96360.72
2023-05-06T03:54:29.332Z,96357.28
2023-05-06T03:56:55.734Z,96370.72
2023-05-06T03:59:22.135Z,96365.94
2023-05-06T04:01:48.564Z,96358.53
2023-05-06T04:04:14.943Z,96362.78
2023-05-06T04:06:41.335Z,96362.28
2023-05-06T04:09:07.719Z,96363.09
2023-05-06T04:11:34.064Z,96358.56
2023-05-06T04:14:00.456Z,96365.47
2023-05-06T04:16:26.863Z,96363.59
2023-05-06T04:18:53.407Z,96357.03
2023-05-06T04:21:19.780Z,96365.72
2023-05-06T04:23:46.132Z,96362.78
2023-05-06T04:26:12.478Z,96355.91
2023-05-06T04:28:38.851Z,96361.19
2023-05-06T04:31:05.234Z,96366.50
2023-05-06T04:33:31.603Z,96369.16
2023-05-06T04:35:57.952Z,96371.81
2023-05-06T04:38:24.300Z,96379.19
2023-05-06T04:40:50.673Z,96369.69
2023-05-06T04:43:17.018Z,96374.97
2023-05-06T04:45:43.431Z,96374.75
2023-05-06T04:48:09.969Z,96371.84
2023-05-06T04:50:36.378Z,96381.34
2023-05-06T04:53:02.717Z,96372.13
2023-05-06T04:55:29.092Z,96384.00
2023-05-06T04:57:55.493Z,96383.50
2023-05-06T05:00:21.882Z,96386.66
2023-05-06T05:02:48.404Z,96379.78
2023-05-06T05:05:14.887Z,96385.84
2023-05-06T05:07:41.291Z,96393.78
2023-05-06T05:10:07.673Z,96389.28
2023-05-06T05:12:34.105Z,96390.31
2023-05-06T05:15:00.483Z,96390.34
2023-05-06T05:17:26.851Z,96391.91
2023-05-06T05:19:53.207Z,96386.38
2023-05-06T05:22:19.541Z,96392.19
2023-05-06T05:24:45.943Z,96389.78
2023-05-06T05:27:12.350Z,96390.84
2023-05-06T05:29:38.752Z,96389.75
2023-05-06T05:32:05.142Z,96387.13
2023-05-06T05:34:31.498Z,96393.72
2023-05-06T05:36:57.884Z,96399.78
2023-05-06T05:39:24.243Z,96399.84
2023-05-06T05:41:50.632Z,96400.63
2023-05-06T05:44:17.020Z,96401.69
2023-05-06T05:46:43.438Z,96408.84
2023-05-06T05:49:09.887Z,96412.00
2023-05-06T05:51:36.221Z,96412.56
2023-05-06T05:54:02.566Z,96412.56
2023-05-06T05:56:28.949Z,96408.91
2023-05-06T05:58:55.355Z,96413.38
2023-05-06T06:01:21.753Z,96414.19
2023-05-06T06:03:48.190Z,96413.69
2023-05-06T06:06:14.622Z,96407.56
2023-05-06T06:08:40.957Z,96411.56
2023-05-06T06:11:07.350Z,96413.69
2023-05-06T06:13:33.762Z,96418.44
2023-05-06T06:16:00.221Z,96420.31
2023-05-06T06:18:26.584Z,96420.03
2023-05-06T06:20:53.596Z,96415.81
2023-05-06T06:23:20.137Z,96421.63
2023-05-06T06:25:46.526Z,96422.94
2023-05-06T06:28:12.910Z,96410.47
2023-05-06T06:30:39.263Z,96413.13
2023-05-06T06:33:05.695Z,96411.25
2023-05-06T06:35:32.105Z,96413.63
2023-05-06T06:37:58.493Z,96414.19
2023-05-06T06:40:24.847Z,96409.38
2023-05-06T06:42:51.319Z,96407.28
2023-05-06T06:45:17.676Z,96408.88
2023-05-06T06:47:44.140Z,96410.72
2023-05-06T06:50:10.555Z,96413.03
2023-05-06T06:52:36.921Z,96402.38
2023-05-06T06:55:03.273Z,96410.44
2023-05-06T06:57:29.621Z,96419.41
2023-05-06T06:59:56.002Z,96409.88
2023-05-06T07:02:22.360Z,96407.00
2023-05-06T07:04:48.720Z,96424.69
2023-05-06T07:07:15.079Z,96419.94
2023-05-06T07:09:41.489Z,96415.41
2023-05-06T07:12:07.875Z,96414.13
2023-05-06T07:14:34.233Z,96420.47
2023-05-06T07:17:00.620Z,96419.41
2023-05-06T07:19:27.060Z,96406.66
2023-05-06T07:21:53.450Z,96424.16
2023-05-06T07:24:19.843Z,96424.91
2023-05-06T07:26:46.232Z,96414.53
2023-05-06T07:29:12.720Z,96420.94
2023-05-06T07:31:39.207Z,96414.59
2023-05-06T07:34:05.573Z,96416.16
2023-05-06T07:36:31.915Z,96421.13
2023-05-06T07:38:58.251Z,96415.28
2023-05-06T07:41:24.587Z,96411.88
2023-05-06T07:43:50.959Z,96416.84
2023-05-06T07:46:17.391Z,96416.00
2023-05-06T07:48:43.807Z,96417.09
2023-05-06T07:51:10.219Z,96419.31
2023-05-06T07:53:36.638Z,96421.09
2023-05-06T07:56:03.067Z,96421.84
2023-05-06T07:58:29.419Z,96414.41
2023-05-06T08:00:55.748Z,96419.91
2023-05-06T08:03:22.270Z,96407.34
2023-05-06T08:05:48.771Z,96418.84
2023-05-06T08:08:15.159Z,96413.22
2023-05-06T08:10:41.561Z,96410.44
2023-05-06T08:13:08.060Z,96398.22
2023-05-06T08:15:34.493Z,96405.91
2023-05-06T08:18:13.684Z,96399.22
2023-05-06T08:20:44.660Z,96395.66
2023-05-06T08:23:11.083Z,96396.13
2023-05-06T08:25:37.465Z,96400.34
2023-05-06T08:28:03.854Z,96392.09
2023-05-06T08:30:30.261Z,96400.50
2023-05-06T08:32:56.655Z,96401.34
2023-05-06T08:35:23.052Z,96388.22
2023-05-06T08:37:49.433Z,96396.69
2023-05-06T08:40:15.831Z,96396.53
2023-05-06T08:42:42.203Z,96394.66
2023-05-06T08:45:08.749Z,96395.78
2023-05-06T08:47:35.283Z,96388.00
2023-05-06T08:50:01.713Z,96398.25
2023-05-06T08:52:28.117Z,96380.28
2023-05-06T08:54:54.474Z,96386.63
2023-05-06T08:57:20.863Z,96378.47
2023-05-06T08:59:47.219Z,96394.53
2023-05-06T09:02:13.636Z,96395.81
2023-05-06T09:04:40.094Z,96388.88
2023-05-06T09:07:06.441Z,96387.16
2023-05-06T09:09:32.814Z,96389.34
2023-05-06T09:11:59.206Z,96384.72
2023-05-06T09:14:25.555Z,96376.00
2023-05-06T09:16:51.960Z,96386.00
2023-05-06T09:19:18.384Z,96375.28
2023-05-06T09:21:44.739Z,96370.53
2023-05-06T09:24:11.129Z,96373.03
2023-05-06T09:26:37.488Z,96374.13
2023-05-06T09:29:03.870Z,96361.25
2023-05-06T09:31:30.403Z,96363.91
2023-05-06T09:33:56.807Z,96359.41
2023-05-06T09:36:23.160Z,96360.38
2023-05-06T09:38:49.600Z,96353.34
2023-05-06T09:41:16.013Z,96358.09
2023-05-06T09:43:42.375Z,96358.09
2023-05-06T09:46:08.876Z,96351.97
2023-05-06T09:48:35.340Z,96352.38
2023-05-06T09:51:01.706Z,96362.09
2023-05-06T09:53:28.075Z,96349.59
2023-05-06T09:55:54.422Z,96345.31
2023-05-06T09:58:20.815Z,96343.41
2023-05-06T10:00:47.214Z,96343.47
2023-05-06T10:03:13.729Z,96336.09
2023-05-06T10:05:40.189Z,96333.03
2023-05-06T10:08:06.556Z,96336.06
2023-05-06T10:10:32.928Z,96331.72
2023-05-06T10:12:59.308Z,96328.97
2023-05-06T10:15:25.778Z,96330.84
2023-05-06T10:17:52.246Z,96328.38
2023-05-06T10:20:18.654Z,96322.47
2023-05-06T10:22:45.054Z,96318.53
2023-05-06T10:25:11.531Z,96322.47
2023-05-06T10:27:38.111Z,96318.72
2023-05-06T10:30:04.508Z,96311.25
2023-05-06T10:32:30.946Z,96308.06
2023-05-06T10:34:57.319Z,96303.16
2023-05-06T10:37:23.710Z,96307.91
2023-05-06T10:39:50.098Z,96300.22
2023-05-06T10:42:16.489Z,96301.69
2023-05-06T10:44:43.686Z,96292.44
2023-05-06T10:47:11.378Z,96298.22
2023-05-06T10:49:37.724Z,96298.81
2023-05-06T10:52:04.076Z,96293.69
2023-05-06T10:54:30.457Z,96289.75
2023-05-06T10:56:56.801Z,96289.53
2023-05-06T10:59:23.441Z,96281.25
2023-05-06T11:01:49.806Z,96284.44
2023-05-06T11:04:16.150Z,96282.63
2023-05-06T11:06:42.518Z,96285.19
2023-05-06T11:09:08.914Z,96277.72
2023-05-06T11:11:35.305Z,96266.56
2023-05-06T11:14:01.655Z,96269.75
2023-05-06T11:16:28.105Z,96273.94
2023-05-06T11:18:54.485Z,96262.13
2023-05-06T11:21:20.833Z,96272.50
2023-05-06T11:23:47.210Z,96265.69
2023-05-06T11:26:13.612Z,96259.53
2023-05-06T11:28:39.953Z,96260.91
2023-05-06T11:31:06.373Z,96252.94
2023-05-06T11:33:32.761Z,96248.31
2023-05-06T11:35:59.107Z,96249.63
2023-05-06T11:38:25.500Z,96250.56
2023-05-06T11:40:51.921Z,96241.97
2023-05-06T11:43:18.331Z,96241.66
2023-05-06T11:45:44.726Z,96245.34
2023-05-06T11:48:11.090Z,96245.59
2023-05-06T11:50:37.476Z,96247.41
2023-05-06T11:53:03.815Z,96248.75
2023-05-06T11:55:30.158Z,96240.34
2023-05-06T11:57:56.494Z,96247.88
2023-05-06T12:00:22.842Z,96249.03
2023-05-06T12:02:49.331Z,96251.72
2023-05-06T12:05:15.826Z,96241.97
2023-05-06T12:07:42.175Z,96243.59
2023-05-06T12:10:08.726Z,96238.25
2023-05-06T12:12:35.362Z,96238.41
2023-05-06T12:15:01.785Z,96231.59
2023-05-06T12:17:28.165Z,96227.69
2023-05-06T12:19:54.542Z,96229.44
2023-05-06T12:22:20.906Z,96229.91
2023-05-06T12:24:47.299Z,96226.94
2023-05-06T12:27:13.690Z,96227.91
2023-05-06T12:29:40.101Z,96224.94
2023-05-06T12:32:06.549Z,96228.72
2023-05-06T12:34:32.956Z,96222.88
2023-05-06T12:36:59.342Z,96214.25
2023-05-06T12:39:25.736Z,96219.72
2023-05-06T12:41:52.091Z,96219.28
2023-05-06T12:44:18.465Z,96217.41
2023-05-06T12:46:44.852Z,96217.69
2023-05-06T12:49:11.192Z,96218.84
2023-05-06T12:51:37.571Z,96219.97
2023-05-06T12:54:03.917Z,96212.53
2023-05-06T12:56:30.307Z,96203.13
2023-05-06T12:58:56.657Z,96205.00
2023-05-06T13:01:23.109Z,96209.03
2023-05-06T13:03:49.576Z,96197.56
2023-05-06T13:06:16.002Z,96194.69
2023-05-06T13:08:42.353Z,96189.53
2023-05-06T13:11:08.734Z,96191.91
2023-05-06T13:13:35.124Z,96196.94
2023-05-06T13:16:01.487Z,96199.28
2023-05-06T13:18:27.895Z,96194.09
2023-05-06T13:20:54.273Z,96195.69
2023-05-06T13:23:20.680Z,96188.53
2023-05-06T13:26:02.939Z,96184.56
2023-05-06T13:28:30.957Z,96184.69
2023-05-06T13:30:57.361Z,96179.41
2023-05-06T13:33:23.782Z,96179.97
2023-05-06T13:35:50.135Z,96167.91
2023-05-06T13:38:16.525Z,96172.06
2023-05-06T13:40:42.876Z,96177.31
2023-05-06T13:43:09.232Z,96169.38
2023-05-06T13:45:35.616Z,96163.44
2023-05-06T13:48:02.020Z,96163.31
2023-05-06T13:50:28.432Z,96151.28
2023-05-06T13:52:54.804Z,96151.97
2023-05-06T13:55:21.191Z,96148.38
2023-05-06T13:57:47.544Z,96145.63
2023-05-06T14:00:13.934Z,96154.38
2023-05-06T14:02:40.388Z,96145.22
2023-05-06T14:05:06.829Z,96155.28
2023-05-06T14:07:33.238Z,96154.69
2023-05-06T14:09:59.588Z,96151.91
2023-05-06T14:12:25.928Z,96158.41
2023-05-06T14:14:52.297Z,96153.84
2023-05-06T14:17:20.494Z,96161.13
2023-05-06T14:19:46.878Z,96157.63
2023-05-06T14:22:13.296Z,96157.63
2023-05-06T14:24:39.654Z,96155.41
2023-05-06T14:27:06.060Z,96160.53
2023-05-06T14:29:32.426Z,96165.97
2023-05-06T14:31:58.976Z,96168.47
2023-05-06T14:34:25.431Z,96171.75
2023-05-06T14:36:51.808Z,96176.44
2023-05-06T14:39:18.312Z,96190.44
2023-05-06T14:41:44.705Z,96184.34
2023-05-06T14:44:11.109Z,96192.06
2023-05-06T14:46:37.510Z,96204.56
2023-05-06T14:49:03.855Z,96201.28
2023-05-06T14:51:30.208Z,96176.00
2023-05-06T14:53:56.579Z,96134.91
2023-05-06T14:56:22.929Z,96154.25
2023-05-06T14:58:49.306Z,96167.84
2023-05-06T15:01:15.662Z,96165.78
2023-05-06T15:03:42.017Z,96149.72
2023-05-06T15:06:08.435Z,96147.44
2023-05-06T15:08:35.061Z,96157.66
2023-05-06T15:11:03.641Z,96138.59
2023-05-06T15:13:30.496Z,96142.31
2023-05-06T15:15:56.861Z,96132.50
2023-05-06T15:18:23.242Z,96126.09
2023-05-06T15:20:49.632Z,96119.28
2023-05-06T15:23:15.987Z,96128.94
2023-05-06T15:25:42.654Z,96130.63
2023-05-06T15:28:09.019Z,96140.69
2023-05-06T15:30:35.367Z,96144.38
2023-05-06T15:33:01.914Z,96134.03
2023-05-06T15:35:28.363Z,96134.28
2023-05-06T15:37:54.697Z,96137.44
2023-05-06T15:40:21.062Z,96143.38
2023-05-06T15:42:47.401Z,96137.09
2023-05-06T15:45:13.782Z,96132.69
2023-05-06T15:47:40.319Z,96130.19
2023-05-06T15:50:16.549Z,96122.63
2023-05-06T15:52:51.478Z,96133.31
2023-05-06T15:55:19.032Z,96128.94
2023-05-06T15:57:45.859Z,96128.19
2023-05-06T16:00:12.507Z,96124.25
2023-05-06T16:02:39.302Z,96121.28
2023-05-06T16:05:05.894Z,96125.84
2023-05-06T16:07:32.398Z,96124.59
2023-05-06T16:09:58.878Z,96126.97
2023-05-06T16:12:25.237Z,96124.94
2023-05-06T16:14:51.584Z,96124.94
2023-05-06T16:17:17.934Z,96122.44
2023-05-06T16:19:44.276Z,96118.16
2023-05-06T16:22:10.673Z,96123.66
2023-05-06T16:24:37.073Z,96122.88
2023-05-06T16:27:03.463Z,96117.28
2023-05-06T16:29:29.802Z,96108.47
2023-05-06T16:31:56.234Z,96106.69
2023-05-06T16:34:22.734Z,96108.28
2023-05-06T16:36:49.094Z,96103.72
2023-05-06T16:39:15.479Z,96110.63
2023-05-06T16:41:41.884Z,96109.41
2023-05-06T16:44:08.252Z,96114.13
2023-05-06T16:46:34.644Z,96119.22
2023-05-06T16:49:01.072Z,96114.69
2023-05-06T16:51:27.469Z,96105.72
2023-05-06T16:53:53.819Z,96109.47
2023-05-06T16:56:20.179Z,96108.31
2023-05-06T16:58:46.533Z,96110.69
2023-05-06T17:01:12.968Z,96113.03
2023-05-06T17:03:39.442Z,96111.25
2023-05-06T17:06:05.828Z,96114.06
2023-05-06T17:08:36.161Z,96110.13
2023-05-06T17:11:04.608Z,96109.34
2023-05-06T17:13:31.635Z,96113.41
2023-05-06T17:15:58.052Z,96110.25
2023-05-06T17:18:24.456Z,96108.31
2023-05-06T17:20:56.059Z,96114.16
2023-05-06T17:23:23.415Z,96109.13
2023-05-06T17:25:49.793Z,96104.47
2023-05-06T17:28:18.041Z,96112.47
2023-05-06T17:30:45.053Z,96096.09
2023-05-06T17:33:11.463Z,96098.50
2023-05-06T17:35:37.864Z,96099.97
2023-05-06T17:38:04.221Z,96095.09
2023-05-06T17:40:30.560Z,96105.78
2023-05-06T17:42:56.893Z,96112.31
2023-05-06T17:45:23.268Z,96111.66
2023-05-06T17:47:49.639Z,96109.88
2023-05-06T17:50:16.002Z,96102.53
2023-05-06T17:52:42.447Z,96104.72
2023-05-06T17:55:16.279Z,96101.72
2023-05-06T17:57:43.591Z,96106.66
2023-05-06T18:00:09.929Z,96115.28
2023-05-06T18:02:36.559Z,96109.09
2023-05-06T18:05:03.057Z,96102.47
2023-05-06T18:07:29.398Z,96099.44
2023-05-06T18:09:55.733Z,96103.31
2023-05-06T18:12:22.143Z,96098.28
2023-05-06T18:14:48.501Z,96106.56
2023-05-06T18:17:14.882Z,96116.84
2023-05-06T18:19:41.274Z,96115.75
2023-05-06T18:22:07.673Z,96116.47
2023-05-06T18:24:34.023Z,96121.44
2023-05-06T18:27:00.399Z,96125.00
2023-05-06T18:29:26.785Z,96115.75
2023-05-06T18:31:53.202Z,96113.78
2023-05-06T18:34:19.575Z,96116.56
2023-05-06T18:36:45.974Z,96110.66
2023-05-06T18:39:12.311Z,96114.22
2023-05-06T18:41:38.708Z,96111.28
2023-05-06T18:44:05.151Z,96109.50
2023-05-06T18:46:31.538Z,96115.44
2023-05-06T18:48:57.889Z,96110.31
2023-05-06T18:51:24.289Z,96117.00
2023-05-06T18:53:50.747Z,96118.19
2023-05-06T18:56:17.117Z,96120.75
2023-05-06T18:58:43.518Z,96123.50
2023-05-06T19:01:09.951Z,96124.19
2023-05-06T19:03:36.366Z,96117.88
2023-05-06T19:06:02.758Z,96118.69
2023-05-06T19:08:29.158Z,96124.31
2023-05-06T19:10:55.547Z,96125.88
2023-05-06T19:13:22.048Z,96125.06
2023-05-06T19:15:48.574Z,96119.94
2023-05-06T19:18:15.039Z,96125.88
2023-05-06T19:20:41.584Z,96124.47
2023-05-06T19:23:07.978Z,96120.75
2023-05-06T19:25:34.328Z,96131.47
2023-05-06T19:28:00.726Z,96129.41
2023-05-06T19:30:27.136Z,96140.13
2023-05-06T19:32:54.852Z,96146.91
2023-05-06T19:35:21.916Z,96140.19
2023-05-06T19:37:48.305Z,96144.53
2023-05-06T19:40:14.768Z,96150.19
2023-05-06T19:42:41.108Z,96147.03
2023-05-06T19:45:07.595Z,96157.34
2023-05-06T19:47:34.192Z,96143.72
2023-05-06T19:50:00.620Z,96141.66
2023-05-06T19:52:26.970Z,96137.91
2023-05-06T19:54:54.391Z,96145.81
2023-05-06T19:57:20.840Z,96143.78
2023-05-06T19:59:47.317Z,96142.38
2023-05-06T20:02:13.713Z,96141.44
2023-05-06T20:04:40.074Z,96145.47
2023-05-06T20:07:06.462Z,96152.13
2023-05-06T20:09:32.851Z,96146.53
2023-05-06T20:11:59.201Z,96148.53
2023-05-06T20:14:25.600Z,96152.34
2023-05-06T20:16:51.952Z,96149.28
2023-05-06T20:19:18.443Z,96155.56
2023-05-06T20:21:44.848Z,96149.97
2023-05-06T20:24:11.243Z,96157.19
2023-05-06T20:26:37.622Z,96158.56
2023-05-06T20:29:03.999Z,96162.66
2023-05-06T20:31:30.426Z,96156.56
2023-05-06T20:33:56.847Z,96158.41
2023-05-06T20:36:23.170Z,96159.50
2023-05-06T20:38:49.508Z,96159.50
2023-05-06T20:41:15.839Z,96160.34
2023-05-06T20:43:42.236Z,96154.25
2023-05-06T20:46:08.759Z,96153.25
2023-05-06T20:48:35.184Z,96156.38
2023-05-06T20:51:01.534Z,96157.53
2023-05-06T20:53:27.916Z,96155.97
2023-05-06T20:55:54.379Z,96158.09
2023-05-06T20:58:20.771Z,96159.19
2023-05-06T21:00:47.144Z,96153.34
2023-05-06T21:03:13.671Z,96154.38
2023-05-06T21:05:40.202Z,96149.13
2023-05-06T21:08:06.597Z,96151.84
2023-05-06T21:10:32.941Z,96156.16
2023-05-06T21:12:59.325Z,96155.25
2023-05-06T21:15:25.733Z,96162.25
2023-05-06T21:17:52.215Z,96157.75
2023-05-06T21:20:18.644Z,96154.53
2023-05-06T21:22:45.092Z,96155.75
2023-05-06T21:25:11.669Z,96153.06
2023-05-06T21:27:38.183Z,96159.94
2023-05-06T21:30:04.568Z,96164.72
2023-05-06T21:32:31.001Z,96155.53
2023-05-06T21:34:57.403Z,96162.19
2023-05-06T21:37:23.752Z,96158.41
2023-05-06T21:39:50.137Z,96164.72
2023-05-06T21:42:16.478Z,96171.63
2023-05-06T21:44:42.943Z,96165.28
2023-05-06T21:47:09.321Z,96165.94
2023-05-06T21:49:35.723Z,96168.31
2023-05-06T21:52:02.081Z,96170.66
2023-05-06T21:54:28.419Z,96168.31
2023-05-06T21:56:54.760Z,96166.41
2023-05-06T21:59:21.107Z,96168.06
2023-05-06T22:01:47.464Z,96175.50
2023-05-06T22:04:13.851Z,96165.75
2023-05-06T22:06:40.328Z,96160.72
2023-05-06T22:09:06.690Z,96167.59
2023-05-06T22:11:33.067Z,96170.53
2023-05-06T22:13:59.398Z,96172.97
2023-05-06T22:16:25.804Z,96169.25
2023-05-06T22:18:52.207Z,96166.88
2023-05-06T22:21:18.567Z,96167.16
2023-05-06T22:23:44.934Z,96167.47
2023-05-06T22:26:11.732Z,96174.94
2023-05-06T22:28:38.101Z,96176.25
2023-05-06T22:31:04.494Z,96176.25
2023-05-06T22:33:30.894Z,96187.66
2023-05-06T22:35:57.279Z,96184.47
2023-05-06T22:38:23.622Z,96181.88
2023-05-06T22:40:50.024Z,96193.53
2023-05-06T22:43:16.374Z,96185.13
2023-05-06T22:45:42.787Z,96183.56
2023-05-06T22:48:09.261Z,96181.69
2023-05-06T22:50:35.675Z,96182.75
2023-05-06T22:53:10.379Z,96181.41
2023-05-06T22:55:40.344Z,96178.53
2023-05-06T22:58:06.751Z,96176.44
2023-05-06T23:00:33.123Z,96175.38
2023-05-06T23:02:59.505Z,96179.69
2023-05-06T23:05:25.890Z,96178.75
2023-05-06T23:07:52.227Z,96170.63
2023-05-06T23:10:18.605Z,96170.94
2023-05-06T23:12:45.086Z,96168.81
2023-05-06T23:15:11.691Z,96179.41
2023-05-06T23:17:38.252Z,96166.72
2023-05-06T23:20:04.709Z,96168.00
2023-05-06T23:22:31.072Z,96175.13
2023-05-06T23:24:57.447Z,96175.84
2023-05-06T23:27:23.833Z,96173.44
2023-05-06T23:29:50.182Z,96177.94
2023-05-06T23:32:16.546Z,96184.84
2023-05-06T23:34:42.918Z,96180.88
2023-05-06T23:37:09.282Z,96187.28
2023-05-06T23:39:35.624Z,96184.63
2023-05-06T23:42:01.982Z,96187.84
2023-05-06T23:44:28.369Z,96179.41
2023-05-06T23:46:54.792Z,96188.38
2023-05-06T23:49:21.177Z,96188.94
2023-05-06T23:51:47.540Z,96189.47
2023-05-06T23:54:13.888Z,96191.03
2023-05-06T23:56:40.279Z,96187.38
2023-05-06T23:59:06.632Z,96185.38
